createdAt,value
2023-03-07T00:00:34.525Z,17.48
2023-03-07T00:06:13.959Z,19.77
2023-03-07T00:11:21.739Z,17.60
2023-03-07T00:16:28.804Z,18.13
2023-03-07T00:21:36.765Z,16.23
2023-03-07T00:26:43.640Z,19.10
2023-03-07T00:31:51.643Z,17.05
2023-03-07T00:36:59.370Z,17.70
2023-03-07T00:42:05.898Z,17.17
2023-03-07T00:47:12.878Z,15.25
2023-03-07T00:52:21.335Z,17.33
2023-03-07T00:57:27.980Z,17.30
2023-03-07T01:02:34.659Z,17.83
2023-03-07T01:07:43.027Z,17.92
2023-03-07T01:12:50.437Z,15.75
2023-03-07T01:17:57.372Z,17.00
2023-03-07T01:23:06.474Z,20.02
2023-03-07T01:28:16.161Z,16.20
2023-03-07T01:33:22.570Z,16.77
2023-03-07T01:38:34.451Z,15.32
2023-03-07T01:43:44.256Z,18.45
2023-03-07T01:48:59.986Z,23.65
2023-03-07T01:54:13.764Z,21.05
2023-03-07T01:59:30.744Z,23.83
2023-03-07T02:04:45.440Z,29.10
2023-03-07T02:09:55.232Z,19.42
2023-03-07T02:15:01.861Z,24.85
2023-03-07T02:20:31.948Z,24.25
2023-03-07T02:25:51.361Z,19.80
2023-03-07T02:31:02.612Z,28.10
2023-03-07T02:36:17.727Z,24.05
2023-03-07T02:41:36.364Z,22.65
2023-03-07T02:46:50.925Z,24.35
2023-03-07T02:52:00.867Z,31.42
2023-03-07T02:57:08.670Z,22.52
2023-03-07T03:02:17.142Z,23.30
2023-03-07T03:07:24.626Z,26.30
2023-03-07T03:12:31.362Z,29.20
2023-03-07T03:17:40.563Z,28.90
2023-03-07T03:22:47.220Z,27.73
2023-03-07T03:27:53.536Z,28.75
2023-03-07T03:33:01.245Z,25.13
2023-03-07T03:38:08.728Z,32.63
2023-03-07T03:43:15.362Z,28.27
2023-03-07T03:48:23.756Z,42.30
2023-03-07T03:53:30.666Z,33.47
2023-03-07T03:58:39.767Z,49.70
2023-03-07T04:03:51.604Z,51.67
2023-03-07T04:08:58.646Z,45.30
2023-03-07T04:14:05.734Z,56.03
2023-03-07T04:19:14.387Z,49.15
2023-03-07T04:24:22.490Z,41.47
2023-03-07T04:29:31.133Z,56.00
2023-03-07T04:34:45.018Z,47.85
2023-03-07T04:39:51.792Z,45.20
2023-03-07T04:44:58.655Z,46.65
2023-03-07T04:50:09.276Z,54.92
2023-03-07T04:55:17.213Z,48.22
2023-03-07T05:00:24.910Z,45.92
2023-03-07T05:05:35.070Z,47.83
2023-03-07T05:10:43.717Z,47.08
2023-03-07T05:15:54.129Z,41.47
2023-03-07T05:21:03.560Z,39.85
2023-03-07T05:26:10.207Z,45.20
2023-03-07T05:31:18.559Z,32.85
2023-03-07T05:36:27.593Z,32.20
2023-03-07T05:41:34.515Z,32.37
2023-03-07T05:46:41.604Z,31.20
2023-03-07T05:51:49.837Z,37.08
2023-03-07T05:56:56.237Z,34.63
2023-03-07T06:02:02.712Z,33.15
2023-03-07T06:07:10.489Z,55.03
2023-03-07T06:12:17.167Z,33.90
2023-03-07T06:17:23.796Z,36.42
2023-03-07T06:22:32.447Z,29.25
2023-03-07T06:27:41.768Z,36.28
2023-03-07T06:32:48.198Z,32.72
2023-03-07T06:37:56.024Z,43.22
2023-03-07T06:43:02.560Z,38.53
2023-03-07T06:48:09.122Z,33.63
2023-03-07T06:53:17.292Z,38.00
2023-03-07T06:58:23.702Z,31.10
2023-03-07T07:03:30.970Z,93.10
2023-03-07T07:08:39.136Z,37.90
2023-03-07T07:13:46.229Z,36.17
2023-03-07T07:18:56.491Z,32.70
2023-03-07T07:24:05.080Z,39.00
2023-03-07T07:29:12.931Z,38.83
2023-03-07T07:34:20.337Z,47.90
2023-03-07T07:39:28.811Z,39.35
2023-03-07T07:44:35.312Z,38.63
2023-03-07T07:49:47.739Z,30.98
2023-03-07T07:54:55.982Z,29.95
2023-03-07T08:00:04.854Z,31.70
2023-03-07T08:05:19.858Z,32.83
2023-03-07T08:10:29.096Z,30.85
2023-03-07T08:15:35.729Z,29.60
2023-03-07T08:20:42.796Z,33.58
2023-03-07T08:25:51.884Z,33.25
2023-03-07T08:30:59.187Z,33.47
2023-03-07T08:36:06.581Z,32.92
2023-03-07T08:41:14.591Z,40.95
2023-03-07T08:46:20.836Z,25.47
2023-03-07T08:51:27.182Z,39.92
2023-03-07T08:56:35.123Z,37.55
2023-03-07T09:01:41.523Z,33.20
2023-03-07T09:06:47.916Z,31.38
2023-03-07T09:11:55.914Z,31.65
2023-03-07T09:17:03.090Z,29.35
2023-03-07T09:22:09.524Z,30.40
2023-03-07T09:27:17.448Z,30.75
2023-03-07T09:32:23.878Z,32.90
2023-03-07T09:37:30.177Z,31.65
2023-03-07T09:42:48.673Z,29.45
2023-03-07T09:48:38.975Z,25.40
2023-03-07T09:53:48.771Z,29.98
2023-03-07T09:59:20.443Z,26.05
2023-03-07T10:04:37.048Z,26.70
2023-03-07T10:09:43.828Z,22.35
2023-03-07T10:15:13.459Z,31.83
2023-03-07T10:20:31.417Z,25.40
2023-03-07T10:25:50.312Z,29.93
2023-03-07T10:31:12.995Z,32.58
2023-03-07T10:36:23.781Z,26.65
2023-03-07T10:41:30.612Z,30.83
2023-03-07T10:46:46.935Z,28.77
2023-03-07T10:52:04.930Z,27.23
2023-03-07T10:57:14.750Z,24.13
2023-03-07T11:02:35.833Z,28.25
2023-03-07T11:07:43.569Z,31.35
2023-03-07T11:12:50.940Z,27.95
2023-03-07T11:17:58.928Z,25.17
2023-03-07T11:23:23.767Z,28.67
2023-03-07T11:28:34.121Z,27.10
2023-03-07T11:34:00.343Z,28.60
2023-03-07T11:39:18.333Z,43.22
2023-03-07T11:44:36.410Z,27.90
2023-03-07T11:50:04.174Z,29.00
2023-03-07T11:55:27.363Z,28.38
2023-03-07T12:00:38.351Z,29.77
2023-03-07T12:06:10.192Z,27.08
2023-03-07T12:11:51.625Z,30.92
2023-03-07T12:17:09.068Z,28.70
2023-03-07T12:22:29.400Z,26.98
2023-03-07T12:27:44.036Z,24.85
2023-03-07T12:32:53.269Z,24.65
2023-03-07T12:38:12.521Z,23.85
2023-03-07T12:43:25.219Z,29.17
2023-03-07T12:48:42.531Z,22.88
2023-03-07T12:53:57.104Z,25.05
2023-03-07T12:59:13.376Z,21.35
2023-03-07T13:04:24.617Z,22.38
2023-03-07T13:09:33.749Z,25.27
2023-03-07T13:14:41.909Z,22.65
2023-03-07T13:19:56.451Z,23.05
2023-03-07T13:25:49.153Z,20.60
2023-03-07T13:31:30.651Z,21.83
2023-03-07T13:36:39.296Z,22.65
2023-03-07T13:41:52.470Z,23.85
2023-03-07T13:47:05.473Z,22.33
2023-03-07T13:52:46.602Z,19.65
2023-03-07T13:57:57.447Z,25.33
2023-03-07T14:03:04.410Z,19.35
2023-03-07T14:08:15.701Z,18.10
2023-03-07T14:13:54.758Z,17.60
2023-03-07T14:19:13.303Z,22.00
2023-03-07T14:24:52.023Z,20.02
2023-03-07T14:29:59.897Z,18.58
2023-03-07T14:35:07.101Z,16.73
2023-03-07T14:40:33.599Z,18.40
2023-03-07T14:45:46.580Z,18.55
2023-03-07T14:50:53.878Z,15.85
2023-03-07T14:56:01.358Z,14.70
2023-03-07T15:01:16.914Z,14.50
2023-03-07T15:06:28.210Z,13.20
2023-03-07T15:11:40.777Z,12.00
2023-03-07T15:16:53.105Z,13.90
2023-03-07T15:22:02.299Z,14.43
2023-03-07T15:27:10.966Z,12.32
2023-03-07T15:32:36.867Z,14.88
2023-03-07T15:37:56.329Z,13.95
2023-03-07T15:43:28.679Z,12.52
2023-03-07T15:48:49.753Z,15.95
2023-03-07T15:54:00.053Z,12.93
2023-03-07T15:59:19.152Z,15.63
2023-03-07T16:04:43.245Z,42.75
2023-03-07T16:09:50.616Z,20.52
2023-03-07T16:15:05.632Z,15.65
2023-03-07T16:20:19.724Z,26.55
2023-03-07T16:25:31.724Z,16.30
2023-03-07T16:30:40.413Z,21.98
2023-03-07T16:35:51.427Z,18.77
2023-03-07T16:40:59.891Z,14.63
2023-03-07T16:46:13.327Z,15.35
2023-03-07T16:51:26.721Z,15.15
2023-03-07T16:56:40.366Z,15.30
2023-03-07T17:01:52.134Z,16.77
2023-03-07T17:07:05.066Z,17.98
2023-03-07T17:12:13.360Z,16.60
2023-03-07T17:17:30.758Z,15.57
2023-03-07T17:22:39.999Z,16.77
2023-03-07T17:27:53.462Z,18.83
2023-03-07T17:33:04.639Z,17.80
2023-03-07T17:38:13.914Z,17.23
2023-03-07T17:43:22.557Z,16.17
2023-03-07T17:48:31.477Z,17.37
2023-03-07T17:53:41.759Z,19.55
2023-03-07T17:58:50.484Z,16.90
2023-03-07T18:03:59.200Z,16.70
2023-03-07T18:09:10.715Z,16.20
2023-03-07T18:14:20.141Z,13.85
2023-03-07T18:19:29.380Z,16.23
2023-03-07T18:24:44.703Z,13.93
2023-03-07T18:29:53.290Z,13.35
2023-03-07T18:35:03.517Z,14.45
2023-03-07T18:40:16.484Z,12.50
2023-03-07T18:45:27.246Z,12.90
2023-03-07T18:50:36.337Z,14.45
2023-03-07T18:55:48.888Z,16.20
2023-03-07T19:00:59.154Z,12.85
2023-03-07T19:06:09.180Z,15.07
2023-03-07T19:11:24.973Z,15.48
2023-03-07T19:16:40.003Z,20.02
2023-03-07T19:21:49.189Z,13.00
2023-03-07T19:27:06.064Z,18.05
2023-03-07T19:32:18.871Z,14.25
2023-03-07T19:37:30.275Z,12.43
2023-03-07T19:42:41.779Z,13.73
2023-03-07T19:47:52.789Z,13.10
2023-03-07T19:53:06.654Z,11.90
2023-03-07T19:58:21.482Z,12.57
2023-03-07T20:03:32.916Z,13.27
2023-03-07T20:08:44.065Z,13.88
2023-03-07T20:13:58.600Z,13.10
2023-03-07T20:19:12.613Z,11.88
2023-03-07T20:24:22.457Z,13.20
2023-03-07T20:29:33.366Z,10.48
2023-03-07T20:34:46.086Z,10.63
2023-03-07T20:40:04.772Z,10.68
2023-03-07T20:45:16.851Z,11.43
2023-03-07T20:50:29.754Z,10.05
2023-03-07T20:55:40.324Z,11.40
2023-03-07T21:00:58.015Z,9.05
2023-03-07T21:06:09.201Z,10.70
2023-03-07T21:11:21.694Z,12.27
2023-03-07T21:16:38.083Z,9.90
2023-03-07T21:21:50.040Z,13.70
2023-03-07T21:26:59.204Z,8.38
2023-03-07T21:32:10.691Z,7.50
2023-03-07T21:37:18.706Z,3.92
2023-03-07T21:42:26.164Z,3.10
2023-03-07T21:47:35.588Z,2.67
2023-03-07T21:52:43.682Z,2.40
2023-03-07T21:57:51.032Z,3.45
2023-03-07T22:02:59.235Z,2.03
2023-03-07T22:08:06.180Z,2.67
2023-03-07T22:13:12.996Z,3.10
2023-03-07T22:18:20.888Z,2.15
2023-03-07T22:23:28.135Z,3.20
2023-03-07T22:28:35.618Z,2.85
2023-03-07T22:33:43.949Z,5.07
2023-03-07T22:38:55.851Z,3.08
2023-03-07T22:44:02.604Z,3.38
2023-03-07T22:49:12.918Z,1.85
2023-03-07T22:54:19.149Z,2.60
2023-03-07T22:59:25.584Z,4.35
2023-03-07T23:04:33.505Z,5.05
2023-03-07T23:09:39.894Z,6.13
2023-03-07T23:14:47.654Z,4.18
2023-03-07T23:19:55.663Z,3.03
2023-03-07T23:25:02.232Z,2.90
2023-03-07T23:30:09.885Z,2.95
2023-03-07T23:35:18.060Z,3.08
2023-03-07T23:40:25.217Z,3.75
2023-03-07T23:45:32.066Z,3.90
2023-03-07T23:50:39.935Z,4.15
2023-03-07T23:55:47.443Z,3.43
